Terminal Aerodrome Forecast
Issued by NWS Bismarck, ND

Home | Current Version | Previous Version | Graphics & Text | Print | Product List | Glossary On
Versions: 1 2 3 4 5 6 7 8 9 10 11 12 13 14 15 16 17 18 19 20 21 22 23
000
FTUS43 KBIS 200621 AAA
TAFISN
TAF AMD
KISN 200621Z 2006/2106 27005KT 1/2SM -RA FG OVC002
     FM200800 26005KT 1/2SM FG OVC003
     FM201200 24006KT 1SM BR OVC010
     FM201400 23008KT 4SM BR SCT150
     FM201700 24009KT P6SM SKC
     FM210100 23005KT P6SM SCT200
     FM210400 VRB03KT P6SM BKN100=

USA.gov is the U.S. government's official web portal to all federal, state and local government web resources and services.